Time;durP1;ratioP1;P1;durP2;ratioP2;P2;SDS_P1;SDS_P2;PMS_P1;PMS_P2;Temp;Humidity;BMP_temperature;BMP_pressure;BME280_temperature;BME280_humidity;BME280_pressure;Samples;Min_cycle;Max_cycle;Signal;HPM_P1;HPM_P2
2022/03/14 00:00:43;;;;;;;4.72;2.20;;;20.00;49.50;;;;;;4432972;32;20094;-70
2022/03/14 00:03:10;;;;;;;4.20;2.20;;;20.00;49.50;;;;;;4446782;32;20600;-70
2022/03/14 00:05:37;;;;;;;6.03;2.25;;;20.00;49.50;;;;;;4433171;32;20133;-70
2022/03/14 00:08:03;;;;;;;8.30;2.67;;;20.00;49.50;;;;;;4446783;32;20129;-70
2022/03/14 00:10:29;;;;;;;4.25;2.28;;;19.90;49.50;;;;;;4446432;32;20172;-70
2022/03/14 00:12:58;;;;;;;5.60;2.20;;;19.90;49.50;;;;;;4446988;32;20086;-70
2022/03/14 00:15:33;;;;;;;5.57;2.80;;;19.90;50.50;;;;;;4445708;32;20141;-70
2022/03/14 00:18:01;;;;;;;4.63;2.28;;;19.90;49.60;;;;;;4433550;32;20208;-69
2022/03/14 00:20:28;;;;;;;4.55;2.28;;;19.90;49.60;;;;;;4446271;32;20181;-70
2022/03/14 00:22:56;;;;;;;4.45;2.00;;;19.90;49.60;;;;;;4446332;32;20507;-70
2022/03/14 00:25:22;;;;;;;5.35;2.30;;;19.90;49.60;;;;;;4432789;32;20085;-70
2022/03/14 00:27:48;;;;;;;8.55;2.50;;;19.90;49.60;;;;;;4446330;32;20298;-69
2022/03/14 00:30:14;;;;;;;4.32;2.30;;;19.90;49.70;;;;;;4446344;32;20082;-70
2022/03/14 00:32:40;;;;;;;7.05;2.83;;;19.80;49.70;;;;;;4446239;32;20110;-70
2022/03/14 00:35:07;;;;;;;6.00;2.75;;;19.90;49.70;;;;;;4446525;32;20180;-70
2022/03/14 00:37:34;;;;;;;6.57;2.53;;;19.80;49.70;;;;;;4446143;32;20605;-70
2022/03/14 00:40:00;;;;;;;5.55;2.30;;;19.90;49.70;;;;;;4445447;32;20203;-69
2022/03/14 00:42:26;;;;;;;4.53;2.20;;;19.80;49.70;;;;;;4431989;32;20094;-70
2022/03/14 00:44:53;;;;;;;5.53;2.55;;;19.80;49.80;;;;;;4446151;32;20066;-70
2022/03/14 00:47:19;;;;;;;5.25;2.53;;;19.80;49.70;;;;;;4446329;32;20444;-72
2022/03/14 00:49:46;;;;;;;5.53;2.20;;;19.80;49.80;;;;;;4446238;32;20090;-70
2022/03/14 00:52:13;;;;;;;3.47;2.10;;;19.80;49.80;;;;;;4445668;32;20089;-70
2022/03/14 00:54:39;;;;;;;4.38;2.28;;;19.70;49.80;;;;;;4446018;32;20236;-70
2022/03/14 00:57:05;;;;;;;4.38;2.28;;;19.80;49.80;;;;;;4445526;32;20531;-70
2022/03/14 00:59:31;;;;;;;7.30;2.20;;;19.70;49.70;;;;;;4445722;32;20078;-70
2022/03/14 01:01:56;;;;;;;4.18;2.10;;;19.70;49.80;;;;;;4446027;32;20081;-70
2022/03/14 01:04:22;;;;;;;5.10;1.92;;;19.70;49.80;;;;;;4432077;32;20062;-70
2022/03/14 01:06:49;;;;;;;4.43;2.33;;;19.70;49.90;;;;;;4432154;32;20062;-70
2022/03/14 01:09:15;;;;;;;4.82;2.33;;;19.70;49.90;;;;;;4445758;32;20086;-70
2022/03/14 01:11:42;;;;;;;3.03;1.90;;;19.70;49.90;;;;;;4445947;32;20082;-70
2022/03/14 01:14:08;;;;;;;4.75;2.28;;;19.70;49.90;;;;;;4445623;32;20570;-70
2022/03/14 01:16:34;;;;;;;4.15;2.42;;;19.70;49.90;;;;;;4431773;32;20216;-70
2022/03/14 01:19:00;;;;;;;3.83;2.17;;;19.70;49.90;;;;;;4445870;32;20255;-70
2022/03/14 01:21:28;;;;;;;5.10;1.88;;;19.70;49.90;;;;;;4445954;32;20149;-70
2022/03/14 01:23:56;;;;;;;4.35;2.10;;;19.60;49.80;;;;;;4445276;32;20090;-70
2022/03/14 01:26:22;;;;;;;3.30;1.90;;;19.60;49.90;;;;;;4445484;32;20534;-70
2022/03/14 01:28:48;;;;;;;3.70;2.40;;;19.60;49.90;;;;;;4445688;32;20100;-70
2022/03/14 01:31:14;;;;;;;3.63;1.92;;;19.60;49.90;;;;;;4445409;32;20159;-70
2022/03/14 01:33:40;;;;;;;3.95;2.17;;;19.60;50.80;;;;;;4444440;32;20096;-70
2022/03/14 01:36:06;;;;;;;4.25;2.10;;;19.60;50.00;;;;;;4444547;32;20223;-70
2022/03/14 01:38:32;;;;;;;2.97;1.88;;;19.60;50.00;;;;;;4445712;32;20070;-70
2022/03/14 01:40:59;;;;;;;4.35;2.28;;;19.60;50.00;;;;;;4445595;32;20092;-70
2022/03/14 01:43:26;;;;;;;4.47;2.22;;;19.60;50.00;;;;;;4445227;32;20097;-70
2022/03/14 01:45:56;;;;;;;4.15;2.15;;;19.60;50.00;;;;;;4445411;32;20562;-70
2022/03/14 01:48:24;;;;;;;4.13;2.00;;;19.50;50.00;;;;;;4445256;32;20090;-70
2022/03/14 01:50:50;;;;;;;3.22;1.95;;;19.50;50.00;;;;;;4445361;32;20649;-70
2022/03/14 01:53:19;;;;;;;4.50;2.40;;;19.50;50.00;;;;;;4431238;32;20092;-70
2022/03/14 01:55:46;;;;;;;4.72;2.00;;;19.50;50.00;;;;;;4445297;32;20098;-70
2022/03/14 01:58:12;;;;;;;4.05;1.80;;;19.50;50.00;;;;;;4428731;32;20176;-70
2022/03/14 02:00:38;;;;;;;3.90;1.73;;;19.50;50.00;;;;;;4429790;32;20110;-70
2022/03/14 02:03:03;;;;;;;3.72;1.90;;;19.50;50.00;;;;;;4430083;32;20097;-70
2022/03/14 02:05:30;;;;;;;3.03;1.77;;;19.50;50.00;;;;;;4429592;32;20175;-71
2022/03/14 02:07:57;;;;;;;3.67;1.80;;;19.40;50.00;;;;;;4429546;32;20078;-70
2022/03/14 02:10:23;;;;;;;5.18;2.08;;;19.50;50.00;;;;;;4429428;32;20074;-70
2022/03/14 02:12:48;;;;;;;3.78;1.90;;;19.40;50.00;;;;;;4429690;32;20070;-70
2022/03/14 02:15:14;;;;;;;3.40;2.00;;;19.40;50.10;;;;;;4429387;32;20212;-70
2022/03/14 02:17:40;;;;;;;3.53;2.05;;;19.40;50.10;;;;;;4429778;32;20102;-70
2022/03/14 02:20:07;;;;;;;3.28;1.98;;;19.40;50.10;;;;;;4424259;32;20090;-70
2022/03/14 02:22:33;;;;;;;3.80;1.90;;;19.40;50.10;;;;;;4429176;32;20093;-70
2022/03/14 02:25:01;;;;;;;5.75;2.35;;;19.40;51.00;;;;;;4429408;32;20114;-70
2022/03/14 02:27:26;;;;;;;3.88;2.10;;;19.40;50.10;;;;;;4429528;32;20058;-71
2022/03/14 02:29:52;;;;;;;3.15;1.90;;;19.40;50.10;;;;;;4429392;32;20407;-70
2022/03/14 02:32:18;;;;;;;3.88;1.90;;;19.40;50.10;;;;;;4429573;32;20086;-70
2022/03/14 02:34:44;;;;;;;3.33;2.03;;;19.40;50.10;;;;;;4429587;32;20170;-70
2022/03/14 02:37:10;;;;;;;4.43;2.28;;;19.40;50.10;;;;;;4429468;32;20106;-70
2022/03/14 02:39:37;;;;;;;4.13;1.98;;;19.40;50.10;;;;;;4429146;32;20664;-69
2022/03/14 02:42:04;;;;;;;4.13;1.83;;;19.40;50.20;;;;;;4428362;32;20070;-71
2022/03/14 02:44:31;;;;;;;4.70;2.17;;;19.40;50.20;;;;;;4428319;32;20082;-70
2022/03/14 02:46:58;;;;;;;3.00;2.00;;;19.30;50.10;;;;;;4428427;32;20524;-70
2022/03/14 02:49:24;;;;;;;5.05;2.03;;;19.30;50.10;;;;;;4429097;32;20504;-71
2022/03/14 02:51:51;;;;;;;2.40;1.60;;;19.30;50.20;;;;;;4429451;32;20094;-70
2022/03/14 02:54:17;;;;;;;3.50;1.98;;;19.30;50.20;;;;;;4429057;32;20097;-70
2022/03/14 02:56:43;;;;;;;3.58;2.13;;;19.30;50.20;;;;;;4429212;32;20373;-70
2022/03/14 02:59:09;;;;;;;4.00;1.80;;;19.30;50.20;;;;;;4427809;32;20085;-70
2022/03/14 03:01:35;;;;;;;3.45;1.90;;;19.30;50.20;;;;;;4429209;32;20215;-71
2022/03/14 03:04:01;;;;;;;2.28;1.70;;;19.30;50.20;;;;;;4429200;32;20220;-70
2022/03/14 03:06:27;;;;;;;2.70;1.70;;;19.30;50.20;;;;;;4429417;32;20098;-70
2022/03/14 03:08:54;;;;;;;2.78;1.65;;;19.30;50.20;;;;;;4429208;32;20075;-70
2022/03/14 03:11:21;;;;;;;2.53;1.63;;;19.30;50.30;;;;;;4429184;32;20118;-72
2022/03/14 03:13:48;;;;;;;3.33;1.80;;;19.20;50.20;;;;;;4429468;32;20080;-70
2022/03/14 03:16:15;;;;;;;4.22;1.85;;;19.20;50.30;;;;;;4429195;32;20074;-70
2022/03/14 03:18:42;;;;;;;3.08;1.58;;;19.20;50.20;;;;;;4429333;32;20133;-70
2022/03/14 03:21:07;;;;;;;3.80;1.70;;;19.20;50.30;;;;;;4431437;32;20547;-69
2022/03/14 03:23:34;;;;;;;3.13;1.70;;;19.20;50.30;;;;;;4430521;32;20078;-70
2022/03/14 03:26:01;;;;;;;3.45;1.85;;;19.20;50.30;;;;;;4432143;32;20093;-70
2022/03/14 03:28:26;;;;;;;2.80;1.65;;;19.20;50.40;;;;;;4432329;32;20074;-71
2022/03/14 03:30:52;;;;;;;2.83;2.13;;;19.20;50.30;;;;;;4432152;32;20082;-70
2022/03/14 03:33:18;;;;;;;2.70;1.70;;;19.20;50.40;;;;;;4430719;32;20059;-69
2022/03/14 03:35:44;;;;;;;3.33;1.90;;;19.20;50.40;;;;;;4431998;32;20228;-70
2022/03/14 03:38:10;;;;;;;3.90;1.65;;;19.20;50.40;;;;;;4430603;32;20107;-70
2022/03/14 03:40:36;;;;;;;4.20;1.70;;;19.20;50.40;;;;;;4430679;32;20476;-70
2022/03/14 03:43:02;;;;;;;3.60;2.00;;;19.20;50.40;;;;;;4430576;32;20595;-70
2022/03/14 03:45:28;;;;;;;3.00;1.90;;;19.20;50.40;;;;;;4431889;32;20078;-70
2022/03/14 03:47:54;;;;;;;3.00;1.80;;;19.20;50.40;;;;;;4431611;32;20549;-70
2022/03/14 03:50:20;;;;;;;3.67;1.70;;;19.20;50.40;;;;;;4430349;32;20181;-70
2022/03/14 03:52:46;;;;;;;2.30;1.52;;;19.10;50.40;;;;;;4431112;32;20093;-70
2022/03/14 03:55:12;;;;;;;4.13;1.98;;;19.10;50.40;;;;;;4431621;32;20074;-70
2022/03/14 03:57:38;;;;;;;2.47;1.60;;;19.10;50.50;;;;;;4434486;32;20132;-71
2022/03/14 04:00:07;;;;;;;2.25;1.60;;;19.10;50.50;;;;;;4447049;32;20160;-70
2022/03/14 04:02:38;;;;;;;2.13;1.45;;;19.10;50.50;;;;;;4446941;32;20097;-70
2022/03/14 04:05:05;;;;;;;2.83;1.58;;;19.10;50.50;;;;;;4446915;32;20165;-69
2022/03/14 04:07:32;;;;;;;2.65;1.92;;;19.10;50.50;;;;;;4419901;32;20093;-70
2022/03/14 04:09:59;;;;;;;4.88;1.90;;;19.10;50.50;;;;;;4446762;32;20159;-70
2022/03/14 04:12:26;;;;;;;3.85;1.77;;;19.10;50.50;;;;;;4432822;32;20062;-70
2022/03/14 04:14:55;;;;;;;3.05;1.80;;;19.10;50.50;;;;;;4432642;32;20140;-70
2022/03/14 04:17:23;;;;;;;3.42;1.52;;;19.10;50.50;;;;;;4446426;32;20445;-71
2022/03/14 04:19:50;;;;;;;2.55;1.98;;;19.10;50.60;;;;;;4446805;32;20066;-70
2022/03/14 04:22:16;;;;;;;2.90;1.80;;;19.00;50.40;;;;;;4446585;32;20084;-70
2022/03/14 04:24:41;;;;;;;3.15;2.10;;;19.00;50.50;;;;;;4446423;32;20062;-70
2022/03/14 04:27:08;;;;;;;2.80;1.60;;;19.00;50.50;;;;;;4420377;32;20085;-70
2022/03/14 04:29:34;;;;;;;2.20;1.40;;;19.00;50.50;;;;;;4446739;32;20395;-71
2022/03/14 04:32:00;;;;;;;2.30;1.40;;;19.00;50.50;;;;;;4446303;32;20251;-69
2022/03/14 04:34:26;;;;;;;3.35;1.77;;;19.00;50.50;;;;;;4432507;32;20200;-70
2022/03/14 04:36:52;;;;;;;2.70;1.73;;;19.00;50.50;;;;;;4446554;32;20125;-71
2022/03/14 04:39:18;;;;;;;2.35;1.48;;;19.00;50.50;;;;;;4446754;32;20244;-70
2022/03/14 04:41:44;;;;;;;2.42;1.55;;;19.00;50.60;;;;;;4446172;32;20086;-71
2022/03/14 04:44:10;;;;;;;3.33;1.80;;;19.00;50.60;;;;;;4446193;32;20089;-70
2022/03/14 04:46:36;;;;;;;3.00;1.75;;;19.00;50.60;;;;;;4446439;32;20096;-71
2022/03/14 04:49:04;;;;;;;2.30;1.52;;;19.00;50.60;;;;;;4446061;32;20086;-70
2022/03/14 04:51:31;;;;;;;2.60;1.70;;;18.90;50.60;;;;;;4446135;32;20519;-71
2022/03/14 04:53:57;;;;;;;1.90;1.42;;;18.90;50.60;;;;;;4431856;32;20094;-70
2022/03/14 04:56:23;;;;;;;2.67;1.85;;;18.90;50.60;;;;;;4445939;32;20069;-70
2022/03/14 04:58:50;;;;;;;2.97;1.83;;;18.90;50.60;;;;;;4445940;32;20109;-71
2022/03/14 05:01:19;;;;;;;3.30;1.48;;;18.90;50.60;;;;;;4432070;32;20389;-71
2022/03/14 05:03:45;;;;;;;2.47;1.60;;;18.90;50.60;;;;;;4446183;32;20090;-71
2022/03/14 05:06:11;;;;;;;2.90;1.60;;;18.90;50.60;;;;;;4432043;32;20590;-70
2022/03/14 05:08:37;;;;;;;2.15;1.50;;;18.90;50.60;;;;;;4446205;32;20058;-71
2022/03/14 05:11:04;;;;;;;2.35;1.40;;;18.90;50.60;;;;;;4445760;32;20082;-70
2022/03/14 05:13:30;;;;;;;2.78;1.48;;;18.90;50.60;;;;;;4446030;32;20533;-70
2022/03/14 05:15:57;;;;;;;2.30;1.40;;;18.90;50.60;;;;;;4431945;32;20593;-70
2022/03/14 05:18:23;;;;;;;2.03;1.50;;;18.90;50.60;;;;;;4445976;32;20099;-71
2022/03/14 05:20:49;;;;;;;2.17;1.70;;;18.90;50.60;;;;;;4445839;32;20152;-70
2022/03/14 05:23:15;;;;;;;2.28;1.33;;;18.90;50.60;;;;;;4431854;32;20152;-70
2022/03/14 05:25:40;;;;;;;2.22;1.50;;;18.80;50.60;;;;;;4418854;32;20144;-71
2022/03/14 05:28:07;;;;;;;1.27;1.17;;;18.80;50.60;;;;;;4445806;32;20089;-71
2022/03/14 05:30:33;;;;;;;2.67;1.48;;;18.80;50.60;;;;;;4431752;32;20144;-70
2022/03/14 05:32:59;;;;;;;2.17;1.63;;;18.80;50.60;;;;;;4431719;32;20073;-69
2022/03/14 05:35:25;;;;;;;2.25;1.30;;;18.80;50.60;;;;;;4445665;32;20475;-70
2022/03/14 05:37:51;;;;;;;2.58;1.50;;;18.80;50.60;;;;;;4445382;32;20121;-70
2022/03/14 05:40:20;;;;;;;2.15;1.50;;;18.80;50.60;;;;;;4445658;32;20062;-70
2022/03/14 05:42:47;;;;;;;1.83;1.40;;;18.80;50.70;;;;;;4444817;32;20176;-71
2022/03/14 05:45:14;;;;;;;2.28;1.50;;;18.80;50.70;;;;;;4445263;32;20144;-70
2022/03/14 05:47:41;;;;;;;2.67;1.70;;;18.80;50.70;;;;;;4445489;32;20128;-70
2022/03/14 05:50:07;;;;;;;1.77;1.38;;;18.80;50.70;;;;;;4431063;32;20066;-70
2022/03/14 05:52:33;;;;;;;2.00;1.80;;;18.80;50.70;;;;;;4444739;32;20093;-70
2022/03/14 05:54:59;;;;;;;3.33;2.60;;;18.80;50.70;;;;;;4445451;32;20141;-70
2022/03/14 05:57:25;;;;;;;4.60;3.15;;;18.80;50.20;;;;;;4430964;32;20082;-71
2022/03/14 05:59:51;;;;;;;3.45;2.15;;;18.70;49.40;;;;;;4445156;32;20098;-71
2022/03/14 06:02:22;;;;;;;7.35;2.75;;;18.70;49.70;;;;;;4444504;32;20407;-70
2022/03/14 06:04:49;;;;;;;8.80;2.60;;;18.70;49.80;;;;;;4445404;32;20232;-69
2022/03/14 06:07:15;;;;;;;4.82;2.30;;;18.70;50.00;;;;;;4445073;32;20086;-70
2022/03/14 06:09:41;;;;;;;4.22;2.20;;;18.70;50.20;;;;;;4444811;32;20199;-70
2022/03/14 06:12:08;;;;;;;3.50;2.20;;;18.60;50.20;;;;;;4445120;32;20097;-69
2022/03/14 06:14:34;;;;;;;8.27;2.30;;;18.70;50.30;;;;;;4444842;32;20224;-70
2022/03/14 06:17:00;;;;;;;2.53;2.00;;;18.70;50.30;;;;;;4444815;32;20088;-70
2022/03/14 06:19:26;;;;;;;3.20;1.92;;;18.70;50.50;;;;;;4445070;32;20090;-70
2022/03/14 06:21:52;;;;;;;2.63;1.70;;;18.70;50.40;;;;;;4445108;32;20098;-70
2022/03/14 06:24:18;;;;;;;2.03;1.73;;;18.80;50.30;;;;;;4444745;32;20092;-70
2022/03/14 06:26:43;;;;;;;9.13;2.00;;;18.80;50.20;;;;;;4445106;32;20070;-70
2022/03/14 06:29:10;;;;;;;3.38;1.98;;;18.90;50.20;;;;;;4444974;32;20094;-70
2022/03/14 06:31:36;;;;;;;5.40;1.67;;;19.00;50.10;;;;;;4444915;32;20066;-71
2022/03/14 06:34:02;;;;;;;8.57;1.50;;;19.10;50.00;;;;;;4444974;32;20407;-68
2022/03/14 06:36:29;;;;;;;6.85;1.92;;;19.20;49.90;;;;;;4444938;32;20070;-69
2022/03/14 06:38:57;;;;;;;7.32;1.50;;;19.30;49.70;;;;;;4430774;32;20082;-69
2022/03/14 06:41:24;;;;;;;2.60;1.45;;;19.40;49.60;;;;;;4444918;32;20082;-69
2022/03/14 06:43:52;;;;;;;3.13;1.58;;;19.50;49.50;;;;;;4431167;32;20441;-69
2022/03/14 06:46:19;;;;;;;3.13;1.70;;;19.60;49.40;;;;;;4444850;32;20081;-70
2022/03/14 06:48:46;;;;;;;5.90;1.40;;;19.70;49.30;;;;;;4444806;32;20085;-70
2022/03/14 06:51:12;;;;;;;5.50;1.60;;;19.80;49.10;;;;;;4444384;32;20086;-72
2022/03/14 06:53:38;;;;;;;6.20;1.50;;;19.90;49.00;;;;;;4430922;32;20086;-70
2022/03/14 06:56:05;;;;;;;2.97;1.38;;;20.00;48.90;;;;;;4447672;32;20089;-69
2022/03/14 06:58:31;;;;;;;4.00;1.50;;;20.10;48.80;;;;;;4447698;32;20132;-69
2022/03/14 07:00:57;;;;;;;6.57;1.30;;;20.20;48.60;;;;;;4446851;32;20082;-68
2022/03/14 07:03:23;;;;;;;6.32;1.50;;;20.30;48.50;;;;;;4447788;32;20098;-69
2022/03/14 07:05:50;;;;;;;8.23;1.58;;;20.30;48.40;;;;;;4447578;32;20199;-69
2022/03/14 07:08:16;;;;;;;4.45;1.48;;;20.40;48.40;;;;;;4447932;32;20203;-71
2022/03/14 07:10:42;;;;;;;2.53;1.20;;;20.50;48.40;;;;;;4447731;32;20067;-70
2022/03/14 07:13:08;;;;;;;6.55;1.77;;;20.50;48.30;;;;;;4447016;32;20093;-70
2022/03/14 07:15:33;;;;;;;5.30;1.83;;;20.60;48.00;;;;;;4433515;32;20085;-70
2022/03/14 07:17:59;;;;;;;4.15;1.40;;;20.60;47.80;;;;;;4421264;32;20168;-70
2022/03/14 07:20:26;;;;;;;5.88;1.60;;;20.60;47.70;;;;;;4447622;32;20078;-69
2022/03/14 07:23:00;;;;;;;2.80;1.10;;;20.70;47.60;;;;;;4446659;32;20085;-70
2022/03/14 07:25:29;;;;;;;1.75;1.30;;;20.70;47.50;;;;;;4447321;32;20092;-70
2022/03/14 07:28:01;;;;;;;3.80;1.40;;;20.80;47.50;;;;;;4433634;32;20082;-70
2022/03/14 07:30:28;;;;;;;4.30;1.40;;;20.70;47.40;;;;;;4447410;32;20239;-71
2022/03/14 07:32:54;;;;;;;6.65;1.67;;;20.80;47.40;;;;;;4447346;32;20070;-70
2022/03/14 07:35:21;;;;;;;3.50;1.33;;;20.80;47.40;;;;;;4447359;32;20407;-71
2022/03/14 07:37:47;;;;;;;4.70;1.58;;;20.80;47.40;;;;;;4447444;32;20393;-70
2022/03/14 07:40:14;;;;;;;6.85;1.33;;;20.80;47.50;;;;;;4447337;32;20074;-69
2022/03/14 07:42:47;;;;;;;7.60;1.52;;;20.70;47.40;;;;;;4432979;32;20179;-68
2022/03/14 07:45:16;;;;;;;6.45;1.70;;;20.80;47.50;;;;;;4447280;32;20085;-69
2022/03/14 07:47:43;;;;;;;4.65;1.20;;;20.80;47.60;;;;;;4446947;32;20522;-69
2022/03/14 07:50:13;;;;;;;5.22;1.60;;;20.80;47.70;;;;;;4447200;32;20074;-71
2022/03/14 07:52:39;;;;;;;9.27;1.63;;;20.80;47.70;;;;;;4446950;32;20121;-70
2022/03/14 07:55:09;;;;;;;9.38;1.63;;;20.80;47.80;;;;;;4446549;32;20085;-70
2022/03/14 07:57:37;;;;;;;6.03;1.27;;;20.80;47.90;;;;;;4447239;32;20093;-70
2022/03/14 08:00:08;;;;;;;9.15;1.20;;;20.90;48.00;;;;;;4447063;32;20092;-71
2022/03/14 08:02:36;;;;;;;8.80;1.35;;;20.80;48.00;;;;;;4420907;32;20094;-70
2022/03/14 08:05:01;;;;;;;5.20;1.08;;;20.90;48.10;;;;;;4432879;32;20121;-70
2022/03/14 08:07:28;;;;;;;5.70;1.30;;;20.90;48.10;;;;;;4432732;32;20112;-70
2022/03/14 08:09:56;;;;;;;5.72;1.30;;;20.90;48.20;;;;;;4432549;32;20085;-70
2022/03/14 08:12:22;;;;;;;4.53;1.20;;;20.90;48.30;;;;;;4446714;32;20196;-70
2022/03/14 08:14:51;;;;;;;6.18;1.45;;;20.90;48.30;;;;;;4446978;32;20524;-70
2022/03/14 08:17:18;;;;;;;5.32;1.10;;;20.90;48.40;;;;;;4432965;32;20074;-71
2022/03/14 08:19:46;;;;;;;4.38;1.00;;;20.90;48.50;;;;;;4446960;32;20244;-69
2022/03/14 08:22:12;;;;;;;4.75;1.10;;;20.90;48.60;;;;;;4446857;32;20606;-70
2022/03/14 08:24:38;;;;;;;3.53;1.25;;;20.90;48.70;;;;;;4446399;32;20110;-71
2022/03/14 08:27:05;;;;;;;3.95;1.08;;;20.80;48.80;;;;;;4446802;32;20096;-70
2022/03/14 08:29:32;;;;;;;6.13;1.30;;;20.80;48.80;;;;;;4446654;32;20110;-70
2022/03/14 08:32:00;;;;;;;5.50;1.10;;;20.80;48.80;;;;;;4420045;32;20124;-69
2022/03/14 08:34:27;;;;;;;7.38;1.45;;;20.80;48.90;;;;;;4446361;32;20081;-70
2022/03/14 08:36:53;;;;;;;5.90;1.27;;;20.80;48.80;;;;;;4446161;32;20066;-70
2022/03/14 08:39:18;;;;;;;4.85;1.10;;;20.80;48.90;;;;;;4446617;32;20151;-70
2022/03/14 08:41:45;;;;;;;9.18;1.30;;;20.80;48.90;;;;;;4446531;32;20504;-70
2022/03/14 08:44:11;;;;;;;3.78;1.10;;;20.80;48.90;;;;;;4446674;32;20093;-71
2022/03/14 08:46:38;;;;;;;5.65;1.38;;;20.80;49.00;;;;;;4446307;32;20220;-72
2022/03/14 08:49:04;;;;;;;6.82;1.50;;;20.70;49.00;;;;;;4446495;32;20070;-71
2022/03/14 08:51:30;;;;;;;6.90;1.30;;;20.70;49.00;;;;;;4446077;32;19983;-73
2022/03/14 08:53:55;;;;;;;7.18;1.10;;;20.70;49.00;;;;;;4445986;32;20054;-71
2022/03/14 08:56:21;;;;;;;8.52;1.20;;;20.70;49.00;;;;;;4446294;32;20632;-71
2022/03/14 08:58:48;;;;;;;7.22;1.30;;;20.70;49.10;;;;;;4445783;32;20299;-72
2022/03/14 09:01:15;;;;;;;6.55;1.20;;;20.70;49.20;;;;;;4446003;32;20082;-70
2022/03/14 09:03:42;;;;;;;5.72;1.10;;;20.60;49.20;;;;;;4445938;32;20511;-71
2022/03/14 09:06:08;;;;;;;6.05;1.25;;;20.60;49.30;;;;;;4445922;32;20164;-72
2022/03/14 09:08:34;;;;;;;5.40;1.38;;;20.60;49.30;;;;;;4445843;32;20167;-70
2022/03/14 09:11:01;;;;;;;14.10;1.90;;;20.60;49.30;;;;;;4445940;32;20411;-70
2022/03/14 09:13:28;;;;;;;8.43;1.20;;;20.60;49.30;;;;;;4445959;32;20086;-72
2022/03/14 09:15:54;;;;;;;5.50;1.30;;;20.60;49.20;;;;;;4445702;32;20144;-72
2022/03/14 09:18:21;;;;;;;12.25;1.55;;;20.60;49.20;;;;;;4444047;32;20499;-71
2022/03/14 09:20:48;;;;;;;6.07;1.20;;;20.60;49.20;;;;;;4444976;32;20304;-72
2022/03/14 09:23:20;;;;;;;10.30;1.60;;;20.60;49.10;;;;;;4442914;32;20086;-72
2022/03/14 09:25:49;;;;;;;2.97;1.30;;;20.60;49.20;;;;;;4444992;32;20082;-73
2022/03/14 09:28:16;;;;;;;7.15;1.20;;;20.60;49.20;;;;;;4445050;32;20086;-72
2022/03/14 09:30:43;;;;;;;4.13;1.00;;;20.60;49.20;;;;;;4430825;32;20267;-71
2022/03/14 09:33:10;;;;;;;2.22;1.00;;;20.60;49.20;;;;;;4444813;32;20089;-72
2022/03/14 09:35:35;;;;;;;3.80;0.98;;;20.60;49.20;;;;;;4445172;32;20054;-72
2022/03/14 09:38:01;;;;;;;5.18;1.27;;;20.60;49.20;;;;;;4445002;32;20126;-71
2022/03/14 09:40:30;;;;;;;3.63;0.80;;;20.60;49.10;;;;;;4428753;32;20227;-73
2022/03/14 09:42:59;;;;;;;3.25;0.90;;;20.60;49.20;;;;;;4445014;32;20089;-72
2022/03/14 09:45:26;;;;;;;4.00;1.30;;;20.60;49.20;;;;;;4430582;32;20063;-70
2022/03/14 09:47:57;;;;;;;3.55;1.60;;;20.60;49.20;;;;;;4445335;32;20097;-72
2022/03/14 09:50:40;;;;;;;3.40;1.30;;;20.60;49.10;;;;;;4445717;32;20081;-72
2022/03/14 09:53:09;;;;;;;7.57;1.30;;;20.60;49.10;;;;;;4445037;32;20535;-72
2022/03/14 09:55:40;;;;;;;20.88;2.20;;;20.60;49.10;;;;;;4429176;32;20084;-69
2022/03/14 09:58:20;;;;;;;16.35;2.05;;;20.60;49.10;;;;;;4431198;32;20173;-70
2022/03/14 10:00:47;;;;;;;13.95;2.08;;;20.60;49.20;;;;;;4444925;32;20081;-69
2022/03/14 10:03:15;;;;;;;16.73;2.65;;;20.60;49.40;;;;;;4430104;32;20130;-70
2022/03/14 10:05:41;;;;;;;21.55;2.28;;;20.60;49.70;;;;;;4430491;32;20888;-71
2022/03/14 10:08:07;;;;;;;16.38;2.05;;;20.60;49.80;;;;;;4444517;32;20105;-70
2022/03/14 10:10:37;;;;;;;12.35;2.00;;;20.60;49.80;;;;;;4444074;32;20610;-71
2022/03/14 10:13:07;;;;;;;21.75;1.92;;;20.60;49.80;;;;;;4443723;32;20134;-73
2022/03/14 10:15:37;;;;;;;9.30;1.65;;;20.60;49.70;;;;;;4443867;32;20078;-71
2022/03/14 10:18:13;;;;;;;9.98;1.77;;;20.60;49.70;;;;;;4444261;32;20074;-71
2022/03/14 10:21:07;;;;;;;9.13;1.50;;;20.60;49.70;;;;;;4444935;32;20070;-72
2022/03/14 10:23:41;;;;;;;9.18;1.63;;;20.60;49.70;;;;;;4444645;32;20077;-69
2022/03/14 10:26:11;;;;;;;13.60;2.08;;;20.60;49.70;;;;;;4431012;32;20512;-69
2022/03/14 10:28:38;;;;;;;9.93;1.98;;;20.50;49.70;;;;;;4444967;32;20129;-69
2022/03/14 10:31:05;;;;;;;9.20;1.45;;;20.60;49.80;;;;;;4444716;32;20165;-69
2022/03/14 10:33:34;;;;;;;10.13;1.73;;;20.60;49.80;;;;;;4444969;32;20085;-69
2022/03/14 10:36:00;;;;;;;7.53;1.25;;;20.60;49.90;;;;;;4444961;32;20138;-70
2022/03/14 10:38:28;;;;;;;10.35;1.50;;;20.60;49.80;;;;;;4445178;32;20605;-69
2022/03/14 10:40:57;;;;;;;7.90;1.42;;;20.60;49.80;;;;;;4444856;32;20078;-68
2022/03/14 10:43:29;;;;;;;4.38;1.70;;;20.60;49.90;;;;;;4444790;32;20081;-69
2022/03/14 10:45:56;;;;;;;7.50;1.52;;;20.60;49.80;;;;;;4444789;32;20160;-69
2022/03/14 10:48:45;;;;;;;6.05;1.40;;;20.60;49.80;;;;;;4430593;32;20118;-69
2022/03/14 10:51:18;;;;;;;6.40;1.65;;;20.50;49.80;;;;;;4431510;32;20129;-69
2022/03/14 10:53:46;;;;;;;9.32;1.35;;;20.50;49.70;;;;;;4444473;32;20074;-69
2022/03/14 10:56:13;;;;;;;6.75;1.45;;;20.50;49.80;;;;;;4444654;32;20074;-70
2022/03/14 10:58:39;;;;;;;7.38;1.58;;;20.50;49.80;;;;;;4444455;32;20070;-71
2022/03/14 11:01:07;;;;;;;4.18;1.35;;;20.50;49.80;;;;;;4428038;32;20101;-70
2022/03/14 11:03:35;;;;;;;6.55;1.23;;;20.50;49.80;;;;;;4429318;32;20071;-70
2022/03/14 11:06:06;;;;;;;10.20;1.85;;;20.50;49.80;;;;;;4429170;32;20098;-70
2022/03/14 11:08:43;;;;;;;7.07;1.30;;;20.50;49.80;;;;;;4429256;32;20231;-69
2022/03/14 11:11:14;;;;;;;3.33;1.23;;;20.50;49.80;;;;;;4428984;32;20092;-70
2022/03/14 11:13:43;;;;;;;9.25;1.42;;;20.50;49.80;;;;;;4429395;32;20082;-71
2022/03/14 11:16:25;;;;;;;8.23;1.70;;;20.50;49.90;;;;;;4428129;32;20097;-69
2022/03/14 11:18:52;;;;;;;4.35;1.50;;;20.50;50.00;;;;;;4429337;32;20062;-69
2022/03/14 11:21:20;;;;;;;5.50;1.42;;;20.40;50.10;;;;;;4429012;32;20156;-70
2022/03/14 11:23:48;;;;;;;5.75;1.48;;;20.40;50.10;;;;;;4428487;32;20093;-68
2022/03/14 11:26:17;;;;;;;17.73;1.73;;;20.40;50.20;;;;;;4428878;32;20070;-68
2022/03/14 11:28:47;;;;;;;9.13;1.83;;;20.40;50.30;;;;;;4428986;32;20699;-67
2022/03/14 11:31:13;;;;;;;9.02;1.42;;;20.40;50.30;;;;;;4429110;32;20425;-68
2022/03/14 11:33:43;;;;;;;5.43;1.52;;;20.40;50.40;;;;;;4429192;32;20086;-67
2022/03/14 11:36:09;;;;;;;8.85;1.50;;;20.40;50.30;;;;;;4427729;32;20305;-69
2022/03/14 11:38:36;;;;;;;9.77;1.17;;;20.40;50.30;;;;;;4428843;32;20109;-67
2022/03/14 11:41:03;;;;;;;12.68;2.17;;;20.40;50.30;;;;;;4429578;32;20166;-69
2022/03/14 11:43:29;;;;;;;6.78;1.40;;;20.50;50.40;;;;;;4430875;32;20385;-69
2022/03/14 11:46:01;;;;;;;5.93;1.60;;;20.50;50.40;;;;;;4431615;32;20356;-69
2022/03/14 11:48:34;;;;;;;8.90;1.50;;;20.50;50.40;;;;;;4432056;32;20078;-68
2022/03/14 11:51:02;;;;;;;11.77;1.30;;;20.50;50.40;;;;;;4430783;32;20180;-68
2022/03/14 11:53:31;;;;;;;5.88;1.40;;;20.50;50.30;;;;;;4431265;32;20097;-68
2022/03/14 11:55:59;;;;;;;6.45;1.30;;;20.50;50.30;;;;;;4431846;32;20079;-69
2022/03/14 11:58:51;;;;;;;5.75;1.50;;;20.50;50.20;;;;;;4430635;32;20397;-69
2022/03/14 12:01:29;;;;;;;4.00;1.05;;;20.50;50.20;;;;;;4444817;32;20168;-69
2022/03/14 12:03:57;;;;;;;10.10;1.45;;;20.50;50.20;;;;;;4447139;32;20271;-69
2022/03/14 12:06:44;;;;;;;6.35;1.45;;;20.50;50.20;;;;;;4447141;32;20453;-68
2022/03/14 12:09:31;;;;;;;8.25;1.33;;;20.60;50.30;;;;;;4432883;32;20078;-68
2022/03/14 12:11:59;;;;;;;8.85;1.67;;;20.50;50.20;;;;;;4446923;32;20540;-69
2022/03/14 12:14:44;;;;;;;7.20;1.80;;;20.60;50.20;;;;;;4447174;32;20082;-68
2022/03/14 12:17:13;;;;;;;3.20;1.05;;;20.60;50.20;;;;;;4446869;32;20104;-69
2022/03/14 12:19:42;;;;;;;2.38;1.20;;;20.60;50.10;;;;;;4432925;32;20078;-69
2022/03/14 12:22:16;;;;;;;5.63;1.20;;;20.50;50.10;;;;;;4432644;32;20074;-70
2022/03/14 12:24:43;;;;;;;;;;;20.60;50.20;;;;;;4447075;32;20211;-68
2022/03/14 12:27:19;;;;;;;23.75;2.42;;;20.50;50.10;;;;;;4432445;32;20334;-69
2022/03/14 12:29:46;;;;;;;18.10;2.33;;;20.60;50.30;;;;;;4446688;32;20089;-70
2022/03/14 12:32:36;;;;;;;17.73;1.80;;;20.60;50.50;;;;;;4446333;32;20122;-68
2022/03/14 12:35:11;;;;;;;18.65;2.65;;;20.60;50.60;;;;;;4439855;32;20115;-67
2022/03/14 12:37:42;;;;;;;14.07;2.30;;;20.60;50.80;;;;;;4446444;32;20069;-69
2022/03/14 12:40:18;;;;;;;19.75;3.42;;;20.60;50.90;;;;;;4446682;32;20173;-68
2022/03/14 12:42:46;;;;;;;21.70;2.55;;;20.60;51.00;;;;;;4446537;32;20231;-69
2022/03/14 12:45:22;;;;;;;25.95;2.90;;;20.60;51.10;;;;;;4446088;32;20601;-69
2022/03/14 12:48:05;;;;;;;25.77;2.28;;;20.60;51.30;;;;;;4446732;32;20086;-68